createdAt,value
2022-12-03T00:01:28.034Z,2.35
2022-12-03T00:03:58.154Z,2.38
2022-12-03T00:06:34.214Z,2.49
2022-12-03T00:09:04.637Z,2.39
2022-12-03T00:11:34.714Z,2.51
2022-12-03T00:14:07.410Z,2.58
2022-12-03T00:16:37.198Z,2.62
2022-12-03T00:19:07.781Z,2.70
2022-12-03T00:21:37.663Z,2.61
2022-12-03T00:24:08.168Z,2.68
2022-12-03T00:26:38.070Z,2.20
2022-12-03T00:29:11.346Z,2.72
2022-12-03T00:31:42.214Z,2.75
2022-12-03T00:34:12.087Z,2.70
2022-12-03T00:36:41.913Z,2.80
2022-12-03T00:39:11.670Z,2.80
2022-12-03T00:41:41.425Z,2.58
2022-12-03T00:44:13.871Z,2.43
2022-12-03T00:46:43.734Z,2.19
2022-12-03T00:49:13.563Z,2.61
2022-12-03T00:51:43.348Z,2.55
2022-12-03T00:54:13.194Z,2.48
2022-12-03T00:56:42.996Z,2.55
2022-12-03T00:59:15.378Z,2.44
2022-12-03T01:01:45.269Z,2.50
2022-12-03T01:04:15.154Z,2.36
2022-12-03T01:06:45.031Z,2.43
2022-12-03T01:09:15.138Z,2.43
2022-12-03T01:11:44.963Z,2.47
2022-12-03T01:14:19.979Z,2.56
2022-12-03T01:16:51.462Z,2.33
2022-12-03T01:19:21.907Z,2.27
2022-12-03T01:21:53.600Z,2.35
2022-12-03T01:24:23.551Z,2.04
2022-12-03T01:26:53.412Z,2.32
2022-12-03T01:29:25.832Z,2.26
2022-12-03T01:32:08.354Z,2.30
2022-12-03T01:34:38.130Z,1.93
2022-12-03T01:37:07.971Z,2.37
2022-12-03T01:39:37.779Z,2.41
2022-12-03T01:42:08.317Z,2.31
2022-12-03T01:44:47.497Z,2.37
2022-12-03T01:47:20.536Z,2.28
2022-12-03T01:49:53.867Z,2.13
2022-12-03T01:52:27.513Z,2.22
2022-12-03T01:54:59.812Z,2.23
2022-12-03T01:57:33.097Z,2.26
2022-12-03T02:00:05.988Z,2.24
2022-12-03T02:02:36.144Z,1.83
2022-12-03T02:05:17.949Z,1.97
2022-12-03T02:07:47.844Z,2.06
2022-12-03T02:10:21.166Z,2.16
2022-12-03T02:12:55.399Z,2.07
2022-12-03T02:15:28.516Z,2.17
2022-12-03T02:17:58.815Z,2.04
2022-12-03T02:20:29.122Z,2.08
2022-12-03T02:23:03.999Z,2.14
2022-12-03T02:25:38.583Z,2.17
2022-12-03T02:28:10.673Z,2.26
2022-12-03T02:30:40.796Z,2.27
2022-12-03T02:33:10.755Z,2.00
2022-12-03T02:35:41.971Z,2.20
2022-12-03T02:38:16.507Z,2.20
2022-12-03T02:40:52.255Z,2.22
2022-12-03T02:43:21.867Z,2.16
2022-12-03T02:45:54.886Z,2.25
2022-12-03T02:48:28.437Z,2.01
2022-12-03T02:51:00.604Z,2.15
2022-12-03T02:53:33.895Z,2.24
2022-12-03T02:56:08.423Z,2.24
2022-12-03T02:58:38.611Z,2.24
2022-12-03T03:01:08.999Z,2.03
2022-12-03T03:03:40.987Z,2.15
2022-12-03T03:06:12.237Z,1.77
2022-12-03T03:08:44.305Z,2.03
2022-12-03T03:11:16.694Z,2.13
2022-12-03T03:13:46.730Z,2.07
2022-12-03T03:16:16.765Z,2.09
2022-12-03T03:18:46.682Z,1.99
2022-12-03T03:21:16.727Z,2.06
2022-12-03T03:23:46.532Z,2.12
2022-12-03T03:26:19.055Z,2.05
2022-12-03T03:28:53.162Z,1.99
2022-12-03T03:31:26.159Z,1.86
2022-12-03T03:33:56.069Z,1.49
2022-12-03T03:36:26.490Z,1.82
2022-12-03T03:38:56.348Z,1.83
2022-12-03T03:41:29.521Z,1.79
2022-12-03T03:43:59.754Z,1.79
2022-12-03T03:46:33.272Z,1.78
2022-12-03T03:49:03.265Z,1.34
2022-12-03T03:51:33.470Z,1.73
2022-12-03T03:54:05.208Z,1.64
2022-12-03T03:56:38.510Z,1.25
2022-12-03T03:59:08.536Z,1.75
2022-12-03T04:01:39.157Z,1.81
2022-12-03T04:04:16.105Z,1.80
2022-12-03T04:06:45.965Z,1.64
2022-12-03T04:09:15.763Z,1.65
2022-12-03T04:12:00.567Z,1.62
2022-12-03T04:14:30.398Z,1.65
2022-12-03T04:17:00.292Z,1.80
2022-12-03T04:19:30.199Z,1.65
2022-12-03T04:22:13.379Z,1.77
2022-12-03T04:24:43.542Z,1.58
2022-12-03T04:27:28.342Z,1.63
2022-12-03T04:29:58.158Z,1.30
2022-12-03T04:32:40.370Z,1.63
2022-12-03T04:35:24.168Z,1.64
2022-12-03T04:37:54.067Z,1.70
2022-12-03T04:40:36.313Z,1.67
2022-12-03T04:43:08.802Z,1.81
2022-12-03T04:45:38.661Z,1.36
2022-12-03T04:48:09.021Z,1.83
2022-12-03T04:50:38.919Z,1.68
2022-12-03T04:53:08.744Z,1.69
2022-12-03T04:55:38.665Z,1.77
2022-12-03T04:58:12.285Z,1.68
2022-12-03T05:00:42.134Z,1.57
2022-12-03T05:03:12.003Z,1.53
2022-12-03T05:05:41.820Z,1.33
2022-12-03T05:08:11.723Z,1.33
2022-12-03T05:10:41.598Z,1.50
2022-12-03T05:13:14.014Z,1.46
2022-12-03T05:15:44.205Z,1.48
2022-12-03T05:18:14.013Z,1.49
2022-12-03T05:20:52.983Z,1.16
2022-12-03T05:23:23.945Z,1.36
2022-12-03T05:25:53.798Z,1.38
2022-12-03T05:28:26.226Z,1.35
2022-12-03T05:30:56.208Z,1.31
2022-12-03T05:33:26.030Z,1.29
2022-12-03T05:35:55.837Z,1.14
2022-12-03T05:38:25.739Z,1.50
2022-12-03T05:40:55.643Z,1.59
2022-12-03T05:43:25.959Z,1.72
2022-12-03T05:45:56.101Z,1.72
2022-12-03T05:48:25.946Z,1.75
2022-12-03T05:50:55.806Z,1.62
2022-12-03T05:53:25.622Z,1.80
2022-12-03T05:55:55.432Z,1.79
2022-12-03T05:58:27.842Z,1.75
2022-12-03T06:00:57.695Z,1.70
2022-12-03T06:03:27.648Z,1.36
2022-12-03T06:05:57.575Z,1.49
2022-12-03T06:08:29.245Z,1.45
2022-12-03T06:10:59.083Z,1.49
2022-12-03T06:13:31.487Z,0.83
2022-12-03T06:16:01.385Z,0.87
2022-12-03T06:18:31.268Z,1.32
2022-12-03T06:21:01.071Z,1.43
2022-12-03T06:23:30.983Z,1.11
2022-12-03T06:26:00.780Z,1.56
2022-12-03T06:28:33.154Z,1.54
2022-12-03T06:31:02.986Z,1.39
2022-12-03T06:33:32.831Z,1.19
2022-12-03T06:36:02.732Z,1.44
2022-12-03T06:38:32.509Z,1.14
2022-12-03T06:41:02.533Z,1.32
2022-12-03T06:43:34.933Z,1.53
2022-12-03T06:46:04.962Z,1.44
2022-12-03T06:48:34.864Z,1.50
2022-12-03T06:51:04.697Z,1.41
2022-12-03T06:53:34.479Z,1.37
2022-12-03T06:56:04.299Z,1.41
2022-12-03T06:58:36.689Z,1.39
2022-12-03T07:01:06.761Z,1.40
2022-12-03T07:03:36.582Z,1.40
2022-12-03T07:06:06.626Z,1.41
2022-12-03T07:08:36.455Z,1.39
2022-12-03T07:11:26.523Z,1.48
2022-12-03T07:14:04.733Z,1.39
2022-12-03T07:16:36.260Z,1.31
2022-12-03T07:19:06.924Z,1.40
2022-12-03T07:21:37.062Z,1.41
2022-12-03T07:24:07.270Z,1.50
2022-12-03T07:26:37.120Z,1.49
2022-12-03T07:29:11.702Z,1.44
2022-12-03T07:31:44.936Z,1.24
2022-12-03T07:34:14.854Z,1.02
2022-12-03T07:36:45.027Z,1.50
2022-12-03T07:39:16.233Z,1.32
2022-12-03T07:41:48.093Z,1.38
2022-12-03T07:44:20.584Z,1.29
2022-12-03T07:46:52.552Z,1.32
2022-12-03T07:49:22.458Z,1.35
2022-12-03T07:51:57.228Z,1.00
2022-12-03T07:54:32.878Z,1.48
2022-12-03T07:57:02.690Z,1.19
2022-12-03T07:59:35.217Z,1.51
2022-12-03T08:02:05.173Z,1.56
2022-12-03T08:04:35.331Z,1.26
2022-12-03T08:07:05.545Z,1.36
2022-12-03T08:09:35.444Z,0.81
2022-12-03T08:12:15.711Z,1.37
2022-12-03T08:14:49.286Z,1.42
2022-12-03T08:17:21.405Z,1.31
2022-12-03T08:19:52.806Z,1.04
2022-12-03T08:22:22.671Z,1.21
2022-12-03T08:24:52.878Z,1.13
2022-12-03T08:27:23.019Z,1.22
2022-12-03T08:30:08.223Z,1.36
2022-12-03T08:32:38.142Z,1.28
2022-12-03T08:35:14.236Z,1.35
2022-12-03T08:37:44.448Z,1.13
2022-12-03T08:40:24.806Z,1.33
2022-12-03T08:42:54.812Z,1.41
2022-12-03T08:45:43.746Z,0.88
2022-12-03T08:48:27.274Z,1.18
2022-12-03T08:50:59.599Z,1.26
2022-12-03T08:53:38.367Z,0.84
2022-12-03T08:56:22.158Z,1.17
2022-12-03T08:58:55.117Z,1.26
2022-12-03T09:01:35.806Z,0.57
2022-12-03T09:04:22.664Z,1.48
2022-12-03T09:06:53.210Z,1.45
2022-12-03T09:09:23.442Z,1.20
2022-12-03T09:11:54.001Z,1.25
2022-12-03T09:14:26.270Z,1.25
2022-12-03T09:16:59.831Z,0.93
2022-12-03T09:19:32.750Z,1.31
2022-12-03T09:22:02.658Z,1.37
2022-12-03T09:24:35.922Z,1.20
2022-12-03T09:27:05.841Z,1.31
2022-12-03T09:29:35.714Z,1.16
2022-12-03T09:32:09.817Z,1.15
2022-12-03T09:34:42.436Z,1.20
2022-12-03T09:37:12.670Z,1.12
2022-12-03T09:39:42.560Z,1.25
2022-12-03T09:42:12.818Z,1.21
2022-12-03T09:44:43.093Z,1.22
2022-12-03T09:47:15.780Z,1.25
2022-12-03T09:49:46.020Z,1.19
2022-12-03T09:52:23.326Z,1.07
2022-12-03T09:54:56.112Z,1.09
2022-12-03T09:57:26.537Z,0.90
2022-12-03T09:59:56.511Z,1.20
2022-12-03T10:02:34.367Z,1.21
2022-12-03T10:05:04.561Z,1.22
2022-12-03T10:07:35.556Z,1.30
2022-12-03T10:10:05.635Z,1.38
2022-12-03T10:12:35.543Z,1.05
2022-12-03T10:15:05.573Z,1.49
2022-12-03T10:17:38.076Z,1.34
2022-12-03T10:20:11.112Z,1.13
2022-12-03T10:22:41.033Z,1.35
2022-12-03T10:25:13.784Z,1.38
2022-12-03T10:27:45.020Z,1.34
2022-12-03T10:30:19.972Z,1.06
2022-12-03T10:32:53.763Z,1.34
2022-12-03T10:35:26.506Z,1.24
2022-12-03T10:38:00.935Z,1.47
2022-12-03T10:40:32.806Z,1.47
2022-12-03T10:43:23.043Z,1.45
2022-12-03T10:45:56.728Z,1.42
2022-12-03T10:48:32.676Z,1.38
2022-12-03T10:51:07.078Z,1.49
2022-12-03T10:53:39.178Z,1.53
2022-12-03T10:56:14.981Z,1.48
2022-12-03T10:58:46.045Z,1.37
2022-12-03T11:01:19.228Z,1.48
2022-12-03T11:03:53.098Z,1.24
2022-12-03T11:06:25.460Z,1.47
2022-12-03T11:09:01.380Z,1.29
2022-12-03T11:11:34.304Z,1.44
2022-12-03T11:14:08.561Z,1.27
2022-12-03T11:17:11.578Z,1.51
2022-12-03T11:19:52.181Z,1.54
2022-12-03T11:22:43.216Z,1.45
2022-12-03T11:25:57.813Z,1.44
2022-12-03T11:28:56.451Z,1.35
2022-12-03T11:31:42.281Z,1.29
2022-12-03T11:34:50.517Z,1.32
2022-12-03T11:37:28.918Z,1.40
2022-12-03T11:40:20.943Z,1.50
2022-12-03T11:42:51.869Z,1.10
2022-12-03T11:45:33.794Z,1.45
2022-12-03T11:48:08.543Z,1.17
2022-12-03T11:50:40.607Z,1.59
2022-12-03T11:53:23.398Z,1.97
2022-12-03T11:56:06.443Z,1.65
2022-12-03T11:58:38.600Z,1.70
2022-12-03T12:01:10.067Z,1.52
2022-12-03T12:03:46.677Z,1.73
2022-12-03T12:06:20.918Z,1.69
2022-12-03T12:09:04.049Z,1.55
2022-12-03T12:11:36.209Z,1.47
2022-12-03T12:14:10.851Z,1.49
2022-12-03T12:16:50.622Z,1.40
2022-12-03T12:19:41.269Z,1.49
2022-12-03T12:22:33.150Z,1.35
2022-12-03T12:25:24.323Z,1.38
2022-12-03T12:27:55.287Z,1.28
2022-12-03T12:30:27.291Z,1.30
2022-12-03T12:33:10.552Z,1.24
2022-12-03T12:35:40.412Z,1.28
2022-12-03T12:38:20.166Z,1.47
2022-12-03T12:40:57.752Z,1.56
2022-12-03T12:43:29.641Z,1.59
2022-12-03T12:46:24.965Z,1.15
2022-12-03T12:48:59.322Z,1.54
2022-12-03T12:51:29.510Z,1.38
2022-12-03T12:54:00.551Z,1.55
2022-12-03T12:56:34.283Z,1.50
2022-12-03T12:59:14.059Z,1.21
2022-12-03T13:01:46.248Z,1.27
2022-12-03T13:04:19.262Z,1.47
2022-12-03T13:06:50.979Z,1.38
2022-12-03T13:09:24.179Z,1.38
2022-12-03T13:12:00.032Z,1.28
2022-12-03T13:14:34.443Z,1.45
2022-12-03T13:17:13.691Z,1.30
2022-12-03T13:19:49.426Z,1.36
2022-12-03T13:22:34.378Z,1.41
2022-12-03T13:25:50.468Z,1.23
2022-12-03T13:28:16.623Z,1.44
2022-12-03T13:31:24.677Z,1.50
2022-12-03T13:33:57.006Z,1.52
2022-12-03T13:36:42.033Z,1.45
2022-12-03T13:39:18.967Z,1.52
2022-12-03T13:42:01.770Z,1.50
2022-12-03T13:44:40.485Z,1.55
2022-12-03T13:47:16.232Z,1.18
2022-12-03T13:49:50.811Z,1.54
2022-12-03T13:52:23.975Z,1.17
2022-12-03T13:54:55.654Z,1.57
2022-12-03T13:57:25.929Z,1.60
2022-12-03T13:59:58.365Z,1.64
2022-12-03T14:02:28.268Z,1.73
2022-12-03T14:05:00.509Z,1.83
2022-12-03T14:07:34.002Z,1.37
2022-12-03T14:10:03.936Z,1.99
2022-12-03T14:12:36.306Z,1.98
2022-12-03T14:15:10.802Z,1.72
2022-12-03T14:17:40.637Z,1.82
2022-12-03T14:20:11.766Z,1.93
2022-12-03T14:22:44.963Z,1.92
2022-12-03T14:25:18.033Z,1.81
2022-12-03T14:27:48.934Z,1.56
2022-12-03T14:30:24.663Z,1.72
2022-12-03T14:32:55.582Z,1.77
2022-12-03T14:35:29.015Z,1.82
2022-12-03T14:37:59.937Z,1.70
2022-12-03T14:40:32.901Z,1.83
2022-12-03T14:43:08.715Z,1.95
2022-12-03T14:45:41.230Z,1.59
2022-12-03T14:48:14.939Z,1.92
2022-12-03T14:50:47.986Z,1.83
2022-12-03T14:53:26.891Z,1.55
2022-12-03T14:56:01.011Z,1.63
2022-12-03T14:58:30.863Z,1.52
2022-12-03T15:01:04.358Z,1.39
2022-12-03T15:03:34.294Z,1.41
2022-12-03T15:06:09.401Z,1.87
2022-12-03T15:08:39.300Z,1.69
2022-12-03T15:11:10.263Z,1.42
2022-12-03T15:13:42.140Z,1.83
2022-12-03T15:16:14.615Z,1.91
2022-12-03T15:18:44.435Z,1.61
2022-12-03T15:21:16.329Z,2.10
2022-12-03T15:23:46.203Z,2.24
2022-12-03T15:26:19.963Z,2.22
2022-12-03T15:28:49.883Z,1.98
2022-12-03T15:31:22.378Z,1.89
2022-12-03T15:33:55.888Z,1.36
2022-12-03T15:36:26.726Z,1.63
2022-12-03T15:38:57.661Z,1.73
2022-12-03T15:41:29.373Z,1.75
2022-12-03T15:44:01.552Z,1.61
2022-12-03T15:46:36.242Z,1.55
2022-12-03T15:49:06.207Z,1.47
2022-12-03T15:51:39.927Z,1.24
2022-12-03T15:54:11.803Z,1.53
2022-12-03T15:56:47.004Z,1.66
2022-12-03T15:59:16.931Z,1.20
2022-12-03T16:01:52.709Z,1.74
2022-12-03T16:04:22.657Z,1.61
2022-12-03T16:06:53.577Z,1.18
2022-12-03T16:09:27.802Z,1.23
2022-12-03T16:11:58.834Z,1.81
2022-12-03T16:14:31.915Z,1.76
2022-12-03T16:17:05.376Z,1.38
2022-12-03T16:19:37.278Z,1.50
2022-12-03T16:22:10.991Z,1.72
2022-12-03T16:24:40.918Z,1.57
2022-12-03T16:27:10.872Z,1.59
2022-12-03T16:29:41.746Z,1.63
2022-12-03T16:32:14.187Z,1.36
2022-12-03T16:34:46.195Z,1.62
2022-12-03T16:37:15.999Z,1.77
2022-12-03T16:39:50.707Z,1.70
2022-12-03T16:42:20.715Z,1.79
2022-12-03T16:45:02.964Z,1.45
2022-12-03T16:47:38.187Z,1.28
2022-12-03T16:50:20.657Z,1.82
2022-12-03T16:52:55.407Z,2.00
2022-12-03T16:55:25.432Z,1.90
2022-12-03T16:57:55.246Z,1.78
2022-12-03T17:00:26.041Z,1.58
2022-12-03T17:02:59.607Z,1.76
2022-12-03T17:05:29.562Z,1.42
2022-12-03T17:08:03.176Z,1.60
2022-12-03T17:10:33.253Z,1.52
2022-12-03T17:13:10.944Z,1.60
2022-12-03T17:15:42.822Z,1.21
2022-12-03T17:18:15.283Z,1.50
2022-12-03T17:20:45.329Z,1.46
2022-12-03T17:23:17.700Z,1.45
2022-12-03T17:25:47.677Z,1.46
2022-12-03T17:28:17.581Z,1.15
2022-12-03T17:30:47.510Z,1.12
2022-12-03T17:33:23.631Z,1.07
2022-12-03T17:35:54.500Z,1.48
2022-12-03T17:38:24.353Z,1.49
2022-12-03T17:40:54.240Z,1.56
2022-12-03T17:43:24.165Z,1.51
2022-12-03T17:45:54.123Z,1.44
2022-12-03T17:48:26.664Z,1.36
2022-12-03T17:50:58.124Z,1.45
2022-12-03T17:53:30.517Z,1.31
2022-12-03T17:56:00.382Z,1.21
2022-12-03T17:58:30.760Z,1.42
2022-12-03T18:01:03.233Z,1.44
2022-12-03T18:03:40.034Z,1.47
2022-12-03T18:06:10.813Z,1.43
2022-12-03T18:08:43.974Z,1.49
2022-12-03T18:11:19.044Z,1.44
2022-12-03T18:13:50.069Z,1.51
2022-12-03T18:16:23.228Z,1.40
2022-12-03T18:18:58.266Z,1.46
2022-12-03T18:21:30.734Z,1.47
2022-12-03T18:24:02.332Z,1.13
2022-12-03T18:26:33.193Z,1.43
2022-12-03T18:29:03.110Z,1.48
2022-12-03T18:31:34.142Z,1.58
2022-12-03T18:34:12.565Z,1.44
2022-12-03T18:36:42.916Z,1.50
2022-12-03T18:39:26.291Z,1.49
2022-12-03T18:42:00.717Z,1.47
2022-12-03T18:44:36.851Z,1.48
2022-12-03T18:47:14.015Z,1.51
2022-12-03T18:49:49.893Z,0.98
2022-12-03T18:52:22.021Z,1.46
2022-12-03T18:54:52.013Z,1.36
2022-12-03T18:57:22.938Z,1.51
2022-12-03T18:59:56.340Z,1.58
2022-12-03T19:03:00.714Z,1.61
2022-12-03T19:05:23.627Z,1.35
2022-12-03T19:07:55.322Z,1.56
2022-12-03T19:10:28.043Z,1.51
2022-12-03T19:12:57.964Z,1.44
2022-12-03T19:15:28.898Z,1.57
2022-12-03T19:17:58.665Z,1.48
2022-12-03T19:20:31.120Z,1.50
2022-12-03T19:23:00.994Z,1.15
2022-12-03T19:25:33.984Z,1.48
2022-12-03T19:28:04.806Z,1.50
2022-12-03T19:30:35.641Z,1.10
2022-12-03T19:33:05.480Z,1.36
2022-12-03T19:35:44.404Z,1.55
2022-12-03T19:38:18.027Z,1.61
2022-12-03T19:40:47.950Z,1.63
2022-12-03T19:43:17.872Z,1.66
2022-12-03T19:45:47.765Z,1.09
2022-12-03T19:48:17.645Z,1.56
2022-12-03T19:51:13.270Z,1.73
2022-12-03T19:53:45.960Z,1.71
2022-12-03T19:56:18.274Z,1.59
2022-12-03T19:58:49.403Z,1.65
2022-12-03T20:01:21.023Z,1.74
2022-12-03T20:03:52.622Z,1.69
2022-12-03T20:06:27.213Z,1.76
2022-12-03T20:08:58.835Z,1.79
2022-12-03T20:11:30.661Z,1.72
2022-12-03T20:14:03.623Z,1.68
2022-12-03T20:16:33.695Z,1.52
2022-12-03T20:19:06.482Z,1.63
2022-12-03T20:21:40.774Z,1.69
2022-12-03T20:24:12.659Z,1.57
2022-12-03T20:26:43.462Z,1.45
2022-12-03T20:29:13.414Z,1.52
2022-12-03T20:31:43.485Z,1.67
2022-12-03T20:34:14.214Z,1.18
2022-12-03T20:36:46.887Z,1.63
2022-12-03T20:39:16.772Z,1.62
2022-12-03T20:41:46.602Z,1.51
2022-12-03T20:44:16.581Z,1.25
2022-12-03T20:46:46.436Z,1.61
2022-12-03T20:49:16.357Z,1.59
2022-12-03T20:51:48.893Z,1.60
2022-12-03T20:54:18.832Z,1.57
2022-12-03T20:56:52.644Z,1.55
2022-12-03T20:59:22.654Z,1.53
2022-12-03T21:01:53.661Z,1.52
2022-12-03T21:04:23.723Z,1.52
2022-12-03T21:06:59.637Z,1.70
2022-12-03T21:09:29.502Z,1.62
2022-12-03T21:11:59.301Z,1.64
2022-12-03T21:14:29.242Z,1.75
2022-12-03T21:17:08.508Z,1.64
2022-12-03T21:19:39.059Z,1.85
2022-12-03T21:22:14.619Z,1.96
2022-12-03T21:24:45.291Z,1.79
2022-12-03T21:27:21.167Z,1.49
2022-12-03T21:29:51.843Z,1.40
2022-12-03T21:32:21.993Z,1.82
2022-12-03T21:34:51.921Z,1.63
2022-12-03T21:37:24.455Z,1.73
2022-12-03T21:39:54.491Z,1.68
2022-12-03T21:42:35.417Z,1.73
2022-12-03T21:45:08.203Z,1.37
2022-12-03T21:47:38.157Z,1.84
2022-12-03T21:50:11.623Z,1.81
2022-12-03T21:52:44.436Z,1.97
2022-12-03T21:55:14.263Z,1.80
2022-12-03T21:57:45.149Z,1.86
2022-12-03T22:00:16.623Z,1.66
2022-12-03T22:02:46.717Z,1.90
2022-12-03T22:05:16.698Z,1.82
2022-12-03T22:07:49.345Z,1.87
2022-12-03T22:10:19.296Z,1.83
2022-12-03T22:12:49.193Z,1.90
2022-12-03T22:15:19.748Z,1.74
2022-12-03T22:17:50.141Z,1.57
2022-12-03T22:20:21.360Z,2.05
2022-12-03T22:22:53.847Z,2.05
2022-12-03T22:25:23.759Z,1.91
2022-12-03T22:27:53.722Z,1.88
2022-12-03T22:30:23.606Z,1.75
2022-12-03T22:32:54.460Z,1.87
2022-12-03T22:35:24.398Z,1.94
2022-12-03T22:37:56.911Z,1.86
2022-12-03T22:40:26.773Z,1.75
2022-12-03T22:42:57.599Z,1.71
2022-12-03T22:45:27.402Z,1.49
2022-12-03T22:47:57.302Z,1.63
2022-12-03T22:50:27.211Z,1.55
2022-12-03T22:52:59.780Z,1.65
2022-12-03T22:55:30.633Z,1.78
2022-12-03T22:58:00.452Z,1.86
2022-12-03T23:00:32.829Z,1.82
2022-12-03T23:03:02.782Z,1.84
2022-12-03T23:05:38.544Z,1.84
2022-12-03T23:08:15.318Z,1.80
2022-12-03T23:10:47.647Z,1.66
2022-12-03T23:13:17.993Z,1.88
2022-12-03T23:15:49.663Z,1.64
2022-12-03T23:18:20.163Z,1.58
2022-12-03T23:20:51.646Z,1.15
2022-12-03T23:23:28.632Z,1.45
2022-12-03T23:26:02.346Z,1.41
2022-12-03T23:28:34.297Z,1.06
2022-12-03T23:31:04.319Z,1.34
2022-12-03T23:33:38.434Z,1.39
2022-12-03T23:36:09.300Z,1.12
2022-12-03T23:38:41.981Z,1.20
2022-12-03T23:41:14.152Z,1.42
2022-12-03T23:43:45.594Z,1.14
2022-12-03T23:46:17.873Z,1.45
2022-12-03T23:48:51.283Z,1.32
2022-12-03T23:51:23.865Z,1.31
2022-12-03T23:53:57.744Z,1.32
2022-12-03T23:56:30.362Z,0.95
2022-12-03T23:59:01.742Z,1.44
